createdAt,value
2022-12-03T00:00:28.727Z,100752.27
2022-12-03T00:03:18.884Z,100753.50
2022-12-03T00:05:50.439Z,100751.27
2022-12-03T00:08:18.924Z,100746.77
2022-12-03T00:10:47.470Z,100747.63
2022-12-03T00:13:16.740Z,100741.67
2022-12-03T00:16:07.641Z,100744.23
2022-12-03T00:18:50.727Z,100744.70
2022-12-03T00:21:24.887Z,100744.77
2022-12-03T00:24:12.851Z,100742.73
2022-12-03T00:26:47.608Z,100747.16
2022-12-03T00:29:18.571Z,100740.23
2022-12-03T00:31:53.079Z,100742.94
2022-12-03T00:34:28.619Z,100741.84
2022-12-03T00:37:00.109Z,100742.64
2022-12-03T00:39:34.923Z,100743.67
2022-12-03T00:42:05.893Z,100741.78
2022-12-03T00:44:34.440Z,100748.27
2022-12-03T00:47:05.926Z,100747.52
2022-12-03T00:49:36.671Z,100749.45
2022-12-03T00:52:04.882Z,100749.95
2022-12-03T00:54:34.701Z,100745.75
2022-12-03T00:57:09.963Z,100743.95
2022-12-03T00:59:42.472Z,100741.00
2022-12-03T01:02:11.417Z,100740.32
2022-12-03T01:04:40.574Z,100740.30
2022-12-03T01:07:09.124Z,100741.48
2022-12-03T01:09:37.720Z,100735.79
2022-12-03T01:12:08.037Z,100738.52
2022-12-03T01:14:38.159Z,100738.11
2022-12-03T01:17:11.797Z,100740.92
2022-12-03T01:19:48.036Z,100737.21
2022-12-03T01:22:16.851Z,100733.73
2022-12-03T01:24:45.368Z,100732.11
2022-12-03T01:27:14.249Z,100732.61
2022-12-03T01:29:42.675Z,100730.52
2022-12-03T01:32:17.396Z,100732.17
2022-12-03T01:34:48.017Z,100734.09
2022-12-03T01:37:17.540Z,100735.12
2022-12-03T01:39:46.140Z,100732.98
2022-12-03T01:42:30.469Z,100733.31
2022-12-03T01:45:01.167Z,100729.56
2022-12-03T01:47:36.654Z,100730.44
2022-12-03T01:50:21.098Z,100728.05
2022-12-03T01:52:50.255Z,100726.17
2022-12-03T01:55:21.414Z,100721.37
2022-12-03T01:57:57.875Z,100718.80
2022-12-03T02:00:28.846Z,100713.77
2022-12-03T02:03:04.220Z,100712.66
2022-12-03T02:05:34.654Z,100710.65
2022-12-03T02:08:34.842Z,100713.56
2022-12-03T02:11:11.965Z,100709.11
2022-12-03T02:13:40.590Z,100705.77
2022-12-03T02:16:09.478Z,100710.20
2022-12-03T02:18:41.120Z,100709.16
2022-12-03T02:21:16.836Z,100711.06
2022-12-03T02:24:00.588Z,100709.10
2022-12-03T02:26:30.044Z,100708.14
2022-12-03T02:29:01.632Z,100705.40
2022-12-03T02:31:30.284Z,100708.99
2022-12-03T02:33:59.404Z,100708.80
2022-12-03T02:36:28.810Z,100705.42
2022-12-03T02:38:57.446Z,100705.83
2022-12-03T02:41:44.567Z,100708.27
2022-12-03T02:44:16.366Z,100708.25
2022-12-03T02:46:44.929Z,100709.05
2022-12-03T02:49:14.011Z,100705.92
2022-12-03T02:51:45.712Z,100705.20
2022-12-03T02:54:15.980Z,100706.83
2022-12-03T02:56:44.388Z,100710.05
2022-12-03T02:59:13.207Z,100709.73
2022-12-03T03:01:41.660Z,100707.62
2022-12-03T03:04:10.488Z,100713.16
2022-12-03T03:06:38.830Z,100708.30
2022-12-03T03:09:07.425Z,100711.85
2022-12-03T03:11:38.672Z,100711.13
2022-12-03T03:14:07.010Z,100710.23
2022-12-03T03:16:36.997Z,100714.02
2022-12-03T03:19:05.402Z,100709.14
2022-12-03T03:21:34.579Z,100711.48
2022-12-03T03:24:03.142Z,100708.20
2022-12-03T03:26:34.266Z,100707.13
2022-12-03T03:29:03.431Z,100706.14
2022-12-03T03:31:32.091Z,100705.10
2022-12-03T03:34:01.449Z,100703.26
2022-12-03T03:36:34.344Z,100702.47
2022-12-03T03:39:05.157Z,100696.34
2022-12-03T03:41:35.478Z,100697.10
2022-12-03T03:44:07.411Z,100695.21
2022-12-03T03:46:37.451Z,100693.48
2022-12-03T03:49:06.964Z,100690.01
2022-12-03T03:51:36.650Z,100694.98
2022-12-03T03:54:06.130Z,100697.80
2022-12-03T03:56:35.565Z,100698.28
2022-12-03T03:59:04.498Z,100698.35
2022-12-03T04:01:33.392Z,100694.92
2022-12-03T04:04:03.082Z,100695.10
2022-12-03T04:06:34.608Z,100695.94
2022-12-03T04:09:03.377Z,100689.57
2022-12-03T04:11:52.939Z,100689.05
2022-12-03T04:14:21.178Z,100681.55
2022-12-03T04:16:49.486Z,100680.91
2022-12-03T04:19:18.430Z,100680.57
2022-12-03T04:22:05.526Z,100679.32
2022-12-03T04:24:36.938Z,100677.36
2022-12-03T04:27:23.867Z,100675.77
2022-12-03T04:29:54.471Z,100673.05
2022-12-03T04:32:41.634Z,100673.85
2022-12-03T04:35:29.830Z,100670.33
2022-12-03T04:37:58.478Z,100664.23
2022-12-03T04:40:47.082Z,100661.29
2022-12-03T04:43:16.077Z,100659.71
2022-12-03T04:45:44.528Z,100661.71
2022-12-03T04:48:13.304Z,100664.08
2022-12-03T04:50:42.216Z,100660.38
2022-12-03T04:53:11.320Z,100664.52
2022-12-03T04:55:39.860Z,100664.97
2022-12-03T04:58:12.793Z,100663.94
2022-12-03T05:00:42.547Z,100659.13
2022-12-03T05:03:14.780Z,100655.21
2022-12-03T05:05:43.295Z,100652.15
2022-12-03T05:08:11.958Z,100651.95
2022-12-03T05:10:40.988Z,100653.02
2022-12-03T05:13:09.754Z,100650.48
2022-12-03T05:15:38.519Z,100646.20
2022-12-03T05:18:06.680Z,100644.22
2022-12-03T05:20:44.756Z,100643.00
2022-12-03T05:23:18.776Z,100636.77
2022-12-03T05:25:47.159Z,100638.62
2022-12-03T05:28:15.826Z,100638.92
2022-12-03T05:30:47.212Z,100640.73
2022-12-03T05:33:16.263Z,100637.98
2022-12-03T05:35:45.178Z,100638.71
2022-12-03T05:38:14.296Z,100637.32
2022-12-03T05:40:43.310Z,100633.77
2022-12-03T05:43:11.667Z,100630.61
2022-12-03T05:45:42.513Z,100629.94
2022-12-03T05:48:15.682Z,100629.09
2022-12-03T05:50:48.771Z,100628.98
2022-12-03T05:53:19.044Z,100627.17
2022-12-03T05:55:47.769Z,100630.27
2022-12-03T05:58:16.334Z,100629.80
2022-12-03T06:00:44.757Z,100629.45
2022-12-03T06:03:15.741Z,100627.20
2022-12-03T06:05:44.735Z,100624.98
2022-12-03T06:08:13.505Z,100626.23
2022-12-03T06:10:42.127Z,100628.79
2022-12-03T06:13:10.682Z,100625.84
2022-12-03T06:15:43.479Z,100627.27
2022-12-03T06:18:13.336Z,100628.30
2022-12-03T06:20:41.839Z,100627.98
2022-12-03T06:23:10.709Z,100630.73
2022-12-03T06:25:39.066Z,100630.56
2022-12-03T06:28:07.665Z,100631.55
2022-12-03T06:30:36.620Z,100631.19
2022-12-03T06:33:04.962Z,100632.15
2022-12-03T06:35:33.588Z,100630.85
2022-12-03T06:38:01.775Z,100633.30
2022-12-03T06:40:29.939Z,100636.16
2022-12-03T06:42:58.311Z,100634.95
2022-12-03T06:45:26.960Z,100639.80
2022-12-03T06:47:55.040Z,100641.70
2022-12-03T06:50:23.223Z,100634.70
2022-12-03T06:52:51.382Z,100636.71
2022-12-03T06:55:22.382Z,100638.50
2022-12-03T06:57:54.138Z,100631.89
2022-12-03T07:00:23.163Z,100632.69
2022-12-03T07:02:59.451Z,100631.87
2022-12-03T07:05:30.718Z,100629.27
2022-12-03T07:07:59.852Z,100632.02
2022-12-03T07:10:28.457Z,100630.64
2022-12-03T07:12:57.488Z,100630.48
2022-12-03T07:15:27.211Z,100631.00
2022-12-03T07:17:55.935Z,100628.05
2022-12-03T07:20:24.177Z,100629.31
2022-12-03T07:22:52.886Z,100628.88
2022-12-03T07:25:23.457Z,100628.81
2022-12-03T07:27:58.240Z,100629.04
2022-12-03T07:30:28.183Z,100624.38
2022-12-03T07:32:56.903Z,100623.61
2022-12-03T07:35:28.001Z,100624.79
2022-12-03T07:37:58.958Z,100620.86
2022-12-03T07:40:28.649Z,100626.23
2022-12-03T07:43:01.558Z,100622.59
2022-12-03T07:45:30.571Z,100628.15
2022-12-03T07:48:04.303Z,100627.16
2022-12-03T07:50:33.097Z,100624.02
2022-12-03T07:53:04.514Z,100625.77
2022-12-03T07:55:35.823Z,100624.02
2022-12-03T07:58:04.523Z,100621.34
2022-12-03T08:00:35.865Z,100619.52
2022-12-03T08:03:08.678Z,100619.58
2022-12-03T08:05:39.637Z,100617.67
2022-12-03T08:08:08.583Z,100613.52
2022-12-03T08:10:36.947Z,100616.27
2022-12-03T08:13:14.830Z,100617.33
2022-12-03T08:15:46.058Z,100614.92
2022-12-03T08:18:16.603Z,100617.02
2022-12-03T08:20:46.687Z,100617.91
2022-12-03T08:23:20.144Z,100614.52
2022-12-03T08:25:52.866Z,100615.38
2022-12-03T08:28:26.957Z,100613.94
2022-12-03T08:31:16.304Z,100611.04
2022-12-03T08:33:52.634Z,100612.30
2022-12-03T08:36:29.451Z,100608.55
2022-12-03T08:39:14.883Z,100611.33
2022-12-03T08:42:02.128Z,100612.76
2022-12-03T08:44:38.981Z,100615.60
2022-12-03T08:47:10.299Z,100613.88
2022-12-03T08:49:39.541Z,100612.54
2022-12-03T08:52:16.197Z,100609.89
2022-12-03T08:54:51.499Z,100608.73
2022-12-03T08:57:34.012Z,100607.98
2022-12-03T09:00:23.741Z,100600.05
2022-12-03T09:02:55.162Z,100598.73
2022-12-03T09:05:37.830Z,100602.13
2022-12-03T09:08:08.455Z,100601.86
2022-12-03T09:10:40.321Z,100598.83
2022-12-03T09:13:14.059Z,100596.78
2022-12-03T09:15:42.569Z,100596.20
2022-12-03T09:18:14.998Z,100599.23
2022-12-03T09:20:47.335Z,100601.13
2022-12-03T09:23:17.811Z,100598.60
2022-12-03T09:25:49.153Z,100600.88
2022-12-03T09:28:20.890Z,100597.15
2022-12-03T09:30:56.113Z,100596.85
2022-12-03T09:33:28.079Z,100593.92
2022-12-03T09:35:57.567Z,100584.73
2022-12-03T09:38:28.975Z,100584.45
2022-12-03T09:41:00.404Z,100587.23
2022-12-03T09:43:49.355Z,100586.60
2022-12-03T09:46:22.265Z,100579.91
2022-12-03T09:48:51.425Z,100582.21
2022-12-03T09:51:22.156Z,100582.93
2022-12-03T09:53:53.623Z,100581.66
2022-12-03T09:56:23.758Z,100580.80
2022-12-03T09:58:58.875Z,100573.67
2022-12-03T10:01:30.267Z,100574.55
2022-12-03T10:03:59.729Z,100573.67
2022-12-03T10:06:41.099Z,100573.91
2022-12-03T10:09:20.511Z,100571.48
2022-12-03T10:11:50.225Z,100571.19
2022-12-03T10:14:23.051Z,100570.13
2022-12-03T10:17:06.401Z,100567.45
2022-12-03T10:19:42.654Z,100568.65
2022-12-03T10:22:13.013Z,100565.02
2022-12-03T10:24:41.386Z,100569.16
2022-12-03T10:27:30.023Z,100566.66
2022-12-03T10:30:01.414Z,100567.00
2022-12-03T10:32:44.573Z,100564.27
2022-12-03T10:35:22.127Z,100563.55
2022-12-03T10:37:59.939Z,100562.06
2022-12-03T10:40:39.225Z,100556.75
2022-12-03T10:43:20.427Z,100555.58
2022-12-03T10:46:03.485Z,100557.59
2022-12-03T10:48:32.779Z,100553.81
2022-12-03T10:51:01.021Z,100556.65
2022-12-03T10:53:32.477Z,100559.30
2022-12-03T10:56:03.703Z,100556.23
2022-12-03T10:58:36.321Z,100554.84
2022-12-03T11:01:14.804Z,100551.54
2022-12-03T11:03:43.886Z,100554.46
2022-12-03T11:06:18.097Z,100550.98
2022-12-03T11:08:56.244Z,100546.83
2022-12-03T11:11:28.895Z,100546.38
2022-12-03T11:14:02.272Z,100545.73
2022-12-03T11:16:39.516Z,100546.75
2022-12-03T11:19:13.529Z,100541.77
2022-12-03T11:22:03.707Z,100541.13
2022-12-03T11:24:36.781Z,100536.52
2022-12-03T11:27:21.897Z,100535.23
2022-12-03T11:30:01.863Z,100534.09
2022-12-03T11:32:43.897Z,100528.67
2022-12-03T11:35:24.534Z,100523.58
2022-12-03T11:37:52.897Z,100519.96
2022-12-03T11:40:21.035Z,100513.40
2022-12-03T11:42:49.972Z,100507.42
2022-12-03T11:45:39.884Z,100505.81
2022-12-03T11:48:14.504Z,100511.02
2022-12-03T11:50:53.676Z,100516.77
2022-12-03T11:53:26.104Z,100514.88
2022-12-03T11:56:11.022Z,100512.70
2022-12-03T11:58:45.708Z,100509.11
2022-12-03T12:01:15.547Z,100506.72
2022-12-03T12:03:50.937Z,100507.89
2022-12-03T12:06:21.305Z,100507.21
2022-12-03T12:08:50.084Z,100505.69
2022-12-03T12:11:18.495Z,100506.39
2022-12-03T12:13:55.033Z,100503.80
2022-12-03T12:16:52.443Z,100502.45
2022-12-03T12:19:42.737Z,100497.63
2022-12-03T12:22:31.105Z,100498.45
2022-12-03T12:25:03.816Z,100496.58
2022-12-03T12:27:39.836Z,100498.64
2022-12-03T12:30:20.822Z,100495.95
2022-12-03T12:32:57.811Z,100498.91
2022-12-03T12:35:33.170Z,100493.55
2022-12-03T12:38:07.375Z,100494.25
2022-12-03T12:40:39.301Z,100494.57
2022-12-03T12:43:33.951Z,100492.54
2022-12-03T12:46:46.014Z,100495.05
2022-12-03T12:49:02.222Z,100489.56
2022-12-03T12:51:30.694Z,100489.08
2022-12-03T12:53:59.017Z,100489.90
2022-12-03T12:56:30.609Z,100482.86
2022-12-03T12:59:09.576Z,100485.65
2022-12-03T13:01:38.408Z,100482.17
2022-12-03T13:04:32.034Z,100480.30
2022-12-03T13:07:03.896Z,100473.27
2022-12-03T13:09:33.345Z,100466.08
2022-12-03T13:12:07.813Z,100466.10
2022-12-03T13:14:37.596Z,100461.67
2022-12-03T13:17:27.216Z,100456.21
2022-12-03T13:20:07.522Z,100450.23
2022-12-03T13:22:40.843Z,100455.25
2022-12-03T13:28:32.661Z,100448.96
2022-12-03T13:31:24.535Z,100446.05
2022-12-03T13:33:57.574Z,100446.09
2022-12-03T13:36:38.757Z,100443.17
2022-12-03T13:39:18.452Z,100444.89
2022-12-03T13:42:06.906Z,100449.38
2022-12-03T13:44:43.080Z,100452.48
2022-12-03T13:47:15.319Z,100452.95
2022-12-03T13:50:05.745Z,100449.04
2022-12-03T13:52:36.015Z,100453.38
2022-12-03T13:55:10.864Z,100454.92
2022-12-03T13:57:41.617Z,100460.06
2022-12-03T14:00:11.387Z,100457.16
2022-12-03T14:02:40.176Z,100461.82
2022-12-03T14:05:08.974Z,100461.47
2022-12-03T14:07:39.094Z,100460.60
2022-12-03T14:10:11.829Z,100460.96
2022-12-03T14:12:41.520Z,100462.02
2022-12-03T14:15:11.827Z,100468.41
2022-12-03T14:17:40.952Z,100468.73
2022-12-03T14:20:10.751Z,100470.27
2022-12-03T14:22:46.638Z,100471.96
2022-12-03T14:25:16.755Z,100467.16
2022-12-03T14:27:46.434Z,100466.64
2022-12-03T14:30:17.285Z,100461.84
2022-12-03T14:32:46.143Z,100460.48
2022-12-03T14:35:16.094Z,100460.26
2022-12-03T14:37:47.737Z,100459.54
2022-12-03T14:40:21.155Z,100459.61
2022-12-03T14:42:51.832Z,100457.58
2022-12-03T14:45:22.779Z,100454.98
2022-12-03T14:47:51.729Z,100457.91
2022-12-03T14:50:20.157Z,100458.98
2022-12-03T14:52:49.182Z,100460.52
2022-12-03T14:55:18.103Z,100455.53
2022-12-03T14:57:47.138Z,100459.83
2022-12-03T15:00:24.092Z,100454.84
2022-12-03T15:03:01.681Z,100452.58
2022-12-03T15:05:33.097Z,100447.47
2022-12-03T15:08:01.651Z,100443.02
2022-12-03T15:10:31.087Z,100443.86
2022-12-03T15:12:59.508Z,100449.34
2022-12-03T15:15:28.068Z,100451.76
2022-12-03T15:17:56.432Z,100452.85
2022-12-03T15:20:24.775Z,100450.98
2022-12-03T15:22:53.243Z,100451.02
2022-12-03T15:25:25.674Z,100451.52
2022-12-03T15:27:54.774Z,100455.14
2022-12-03T15:30:23.356Z,100459.95
2022-12-03T15:32:51.929Z,100459.76
2022-12-03T15:35:20.794Z,100461.96
2022-12-03T15:37:54.869Z,100464.72
2022-12-03T15:40:23.585Z,100466.27
2022-12-03T15:42:52.417Z,100464.73
2022-12-03T15:45:22.746Z,100468.85
2022-12-03T15:47:51.211Z,100468.18
2022-12-03T15:50:19.867Z,100469.23
2022-12-03T15:52:48.764Z,100464.23
2022-12-03T15:55:48.480Z,100468.89
2022-12-03T15:58:18.211Z,100464.77
2022-12-03T16:00:46.377Z,100459.77
2022-12-03T16:03:14.960Z,100464.80
2022-12-03T16:05:43.261Z,100463.27
2022-12-03T16:08:11.786Z,100461.85
2022-12-03T16:10:40.930Z,100462.85
2022-12-03T16:13:09.451Z,100462.98
2022-12-03T16:15:38.024Z,100464.42
2022-12-03T16:18:06.712Z,100458.40
2022-12-03T16:20:35.475Z,100457.48
2022-12-03T16:23:04.661Z,100459.69
2022-12-03T16:25:33.045Z,100458.80
2022-12-03T16:28:02.354Z,100457.27
2022-12-03T16:30:31.237Z,100459.71
2022-12-03T16:33:00.332Z,100460.23
2022-12-03T16:35:29.576Z,100457.47
2022-12-03T16:37:57.809Z,100454.86
2022-12-03T16:40:26.364Z,100461.23
2022-12-03T16:42:55.378Z,100461.61
2022-12-03T16:45:29.836Z,100460.91
2022-12-03T16:47:58.531Z,100462.30
2022-12-03T16:50:29.955Z,100463.52
2022-12-03T16:52:59.011Z,100455.62
2022-12-03T16:55:27.423Z,100448.84
2022-12-03T16:57:56.130Z,100450.06
2022-12-03T17:00:26.319Z,100451.91
2022-12-03T17:02:54.931Z,100450.48
2022-12-03T17:05:23.428Z,100453.77
2022-12-03T17:07:52.297Z,100452.73
2022-12-03T17:10:21.300Z,100450.70
2022-12-03T17:15:40.050Z,100456.05
2022-12-03T17:18:09.737Z,100451.09
2022-12-03T17:20:39.171Z,100448.88
2022-12-03T17:23:08.469Z,100454.39
2022-12-03T17:25:36.944Z,100454.89
2022-12-03T17:28:05.427Z,100454.36
2022-12-03T17:30:34.066Z,100451.25
2022-12-03T17:33:02.685Z,100446.98
2022-12-03T17:35:32.015Z,100441.34
2022-12-03T17:38:02.765Z,100437.90
2022-12-03T17:40:31.392Z,100443.74
2022-12-03T17:43:00.392Z,100441.67
2022-12-03T17:45:30.399Z,100444.80
2022-12-03T17:48:00.334Z,100450.25
2022-12-03T17:50:31.302Z,100443.64
2022-12-03T17:53:01.995Z,100438.64
2022-12-03T17:55:38.302Z,100444.29
2022-12-03T17:58:11.204Z,100438.75
2022-12-03T18:00:41.553Z,100436.31
2022-12-03T18:03:10.552Z,100434.07
2022-12-03T18:05:39.826Z,100438.16
2022-12-03T18:08:10.205Z,100434.35
2022-12-03T18:10:40.924Z,100432.64
2022-12-03T18:13:10.256Z,100436.25
2022-12-03T18:15:39.084Z,100437.83
2022-12-03T18:18:07.547Z,100434.70
2022-12-03T18:20:36.202Z,100428.17
2022-12-03T18:23:04.424Z,100428.17
2022-12-03T18:25:33.552Z,100426.16
2022-12-03T18:28:02.872Z,100428.83
2022-12-03T18:30:31.423Z,100427.35
2022-12-03T18:33:02.262Z,100422.16
2022-12-03T18:35:32.013Z,100417.49
2022-12-03T18:38:00.551Z,100418.99
2022-12-03T18:40:29.762Z,100415.36
2022-12-03T18:42:59.521Z,100417.75
2022-12-03T18:45:28.091Z,100412.21
2022-12-03T18:47:56.879Z,100408.25
2022-12-03T18:50:25.422Z,100404.98
2022-12-03T18:52:54.012Z,100400.68
2022-12-03T18:55:23.291Z,100409.15
2022-12-03T18:57:52.332Z,100407.27
2022-12-03T19:00:20.810Z,100408.83
2022-12-03T19:03:05.589Z,100405.86
2022-12-03T19:05:35.907Z,100407.73
2022-12-03T19:08:04.734Z,100412.71
2022-12-03T19:10:33.734Z,100414.41
2022-12-03T19:13:03.895Z,100412.88
2022-12-03T19:15:38.037Z,100412.21
2022-12-03T19:18:07.795Z,100414.47
2022-12-03T19:20:39.607Z,100416.86
2022-12-03T19:23:08.463Z,100418.05
2022-12-03T19:25:36.957Z,100419.41
2022-12-03T19:28:06.184Z,100418.08
2022-12-03T19:30:34.766Z,100414.15
2022-12-03T19:33:03.848Z,100423.97
2022-12-03T19:35:33.051Z,100424.00
2022-12-03T19:38:02.201Z,100425.04
2022-12-03T19:40:35.421Z,100425.20
2022-12-03T19:43:04.029Z,100426.23
2022-12-03T19:45:33.157Z,100425.37
2022-12-03T19:48:02.441Z,100425.36
2022-12-03T19:50:31.159Z,100423.80
2022-12-03T19:53:00.193Z,100426.39
2022-12-03T19:55:28.804Z,100422.61
2022-12-03T19:58:00.785Z,100421.25
2022-12-03T20:00:29.470Z,100419.52
2022-12-03T20:02:58.196Z,100423.83
2022-12-03T20:05:31.761Z,100426.92
2022-12-03T20:08:06.006Z,100429.34
2022-12-03T20:10:39.252Z,100425.75
2022-12-03T20:13:08.745Z,100424.96
2022-12-03T20:15:37.802Z,100421.36
2022-12-03T20:18:06.179Z,100420.99
2022-12-03T20:20:34.452Z,100425.96
2022-12-03T20:23:03.905Z,100425.95
2022-12-03T20:25:32.453Z,100419.11
2022-12-03T20:28:01.345Z,100422.36
2022-12-03T20:30:30.650Z,100422.02
2022-12-03T20:32:59.620Z,100420.27
2022-12-03T20:35:28.709Z,100419.12
2022-12-03T20:37:57.979Z,100418.95
2022-12-03T20:40:26.947Z,100417.05
2022-12-03T20:42:56.108Z,100417.55
2022-12-03T20:45:24.988Z,100414.97
2022-12-03T20:47:53.976Z,100410.02
2022-12-03T20:50:25.348Z,100412.44
2022-12-03T20:53:16.700Z,100409.16
2022-12-03T20:55:42.264Z,100405.55
2022-12-03T20:58:11.479Z,100411.61
2022-12-03T21:00:40.187Z,100414.37
2022-12-03T21:03:09.217Z,100410.95
2022-12-03T21:05:38.208Z,100403.36
2022-12-03T21:08:06.882Z,100407.13
2022-12-03T21:10:45.412Z,100400.06
2022-12-03T21:13:17.110Z,100403.86
2022-12-03T21:15:45.827Z,100401.10
2022-12-03T21:18:16.468Z,100403.17
2022-12-03T21:20:48.891Z,100399.56
2022-12-03T21:23:17.449Z,100399.77
2022-12-03T21:25:45.994Z,100395.66
2022-12-03T21:28:14.421Z,100398.10
2022-12-03T21:30:43.403Z,100399.66
2022-12-03T21:33:11.874Z,100398.83
2022-12-03T21:35:40.957Z,100398.82
2022-12-03T21:38:09.436Z,100399.14
2022-12-03T21:40:38.347Z,100398.45
2022-12-03T21:43:07.180Z,100393.16
2022-12-03T21:45:35.731Z,100393.17
2022-12-03T21:48:04.190Z,100384.38
2022-12-03T21:50:32.626Z,100387.31
2022-12-03T21:53:01.496Z,100386.64
2022-12-03T21:55:30.422Z,100387.00
2022-12-03T21:57:59.540Z,100390.29
2022-12-03T22:00:28.645Z,100390.11
2022-12-03T22:02:58.164Z,100389.61
2022-12-03T22:05:28.191Z,100384.29
2022-12-03T22:07:58.072Z,100389.82
2022-12-03T22:10:28.280Z,100394.81
2022-12-03T22:12:58.648Z,100394.81
2022-12-03T22:15:28.268Z,100387.77
2022-12-03T22:17:56.872Z,100384.51
2022-12-03T22:20:28.061Z,100384.02
2022-12-03T22:22:58.431Z,100384.02
2022-12-03T22:25:31.038Z,100385.73
2022-12-03T22:27:59.633Z,100379.70
2022-12-03T22:30:27.820Z,100378.14
2022-12-03T22:32:56.076Z,100371.08
2022-12-03T22:35:24.395Z,100374.03
2022-12-03T22:37:53.229Z,100373.52
2022-12-03T22:40:21.690Z,100372.13
2022-12-03T22:42:51.364Z,100366.96
2022-12-03T22:45:19.714Z,100365.80
2022-12-03T22:47:48.382Z,100366.66
2022-12-03T22:50:16.769Z,100359.77
2022-12-03T22:52:45.021Z,100354.27
2022-12-03T22:55:13.258Z,100356.33
2022-12-03T22:57:41.432Z,100349.46
2022-12-03T23:00:10.843Z,100349.30
2022-12-03T23:02:39.241Z,100347.55
2022-12-03T23:05:07.928Z,100345.80
2022-12-03T23:07:36.254Z,100348.75
2022-12-03T23:10:06.002Z,100347.56
2022-12-03T23:12:34.777Z,100344.00
2022-12-03T23:15:03.075Z,100341.41
2022-12-03T23:17:31.579Z,100337.80
2022-12-03T23:19:59.994Z,100342.43
2022-12-03T23:22:29.735Z,100340.17
2022-12-03T23:24:58.174Z,100343.11
2022-12-03T23:27:28.441Z,100339.69
2022-12-03T23:29:57.777Z,100340.89
2022-12-03T23:32:27.155Z,100336.23
2022-12-03T23:34:55.722Z,100331.58
2022-12-03T23:37:24.296Z,100330.21
2022-12-03T23:39:52.922Z,100326.96
2022-12-03T23:42:21.688Z,100321.98
2022-12-03T23:44:49.907Z,100319.40
2022-12-03T23:47:21.036Z,100314.74
2022-12-03T23:49:49.436Z,100311.48
2022-12-03T23:52:17.795Z,100315.95
2022-12-03T23:54:46.454Z,100313.52
2022-12-03T23:57:15.988Z,100314.56
2022-12-03T23:59:44.752Z,100315.78
